< Typhoon 200419 2004 Season Typhoon 200421 >
Typhoon 200420 (HAIMA)
General InformationTrack Information on Google MapsDetailed Wind InformationAccess Analytics MapList of All Images || NewsDisaster Info.WeblogTrackbackTyphoon FrontResourceGoogle EarthGE AnimationAtom FeedGeoJSON
Detalied Best Track (Time Zone = UTC)
Year Month Day Hour Lat. Long. Pressure (hPa) Wind (kt) Class Image Chart
2004 9 10 18 23.0 119.6 1002 0 2 Image Chart
2004 9 11 00 22.7 120.3 1000 35 3 Image Chart
2004 9 11 06 22.5 121.4 998 35 3 Image Chart
2004 9 11 12 23.4 121.8 998 35 3 Image Chart
2004 9 11 18 24.4 122.1 996 40 3 Image Chart
2004 9 12 00 24.9 122.2 996 40 3 Image Chart
2004 9 12 06 25.3 122.3 996 40 3 Image Chart
2004 9 12 12 26.1 122.3 998 35 3 Image Chart
2004 9 12 18 26.5 121.9 998 35 3 Image Chart
2004 9 13 00 27.1 121.5 1000 35 3 Image Chart
2004 9 13 06 27.8 120.6 1004 0 2 Image Chart
2004 9 13 12 28.3 120.0 1010 0 2 Image Chart
2004 9 13 18 30.0 119.6 1010 0 6 Image Chart
2004 9 14 00 32.0 119.1 1008 0 6 Image Chart
2004 9 14 06 32.6 119.1 1008 0 6 Image Chart
2004 9 14 12 35.7 119.4 1008 0 6 Image Chart
2004 9 14 18 39.1 118.0 1004 0 6 Image Chart
2004 9 15 00 40.4 117.9 1004 0 6 Image Chart
2004 9 15 06 42.1 117.4 1004 0 6 Image Chart
2004 9 15 12 44.8 116.8 1004 0 6 Image Chart
2004 9 15 18 46.7 116.4 1000 0 6 Image Chart
2004 9 16 00 49.4 116.6 998 0 6 Image Chart
2004 9 16 06 50.9 116.6 994 0 6 Image Chart
2004 9 16 12 51.6 117.9 994 0 6 Image Chart
2004 9 16 18 52.1 119.0 994 0 6 Image Chart
2004 9 17 00 52.5 120.2 994 0 6 Image Chart
2004 9 17 06 53.0 122.1 992 0 6 Image Chart
2004 9 17 12 53.1 123.5 996 0 6 Image Chart
2004 9 17 18 53.1 124.3 996 0 6 Image Chart
2004 9 18 00 52.8 125.5 998 0 6 Image Chart
2004 9 18 06 52.5 126.5 998 0 6 Image Chart
2004 9 18 12 52.2 128.5 998 0 6 Image Chart
2004 9 18 18 52.1 129.9 998 0 6 Image Chart
2004 9 19 00 52.0 131.2 998 0 6 Image Chart
2004 9 19 06 52.0 133.1 998 0 6 Image Chart
Japan Meteorological Agency Best Track Data | Correction Date : 2006-01-18
< Typhoon 200419 2004 Season Typhoon 200421 >

Help